Julian Carroll Airport Jackson US
ICAO: KJKL
IATA: JKL
Category: Medium
Scheduled Services: No

Elevation: 1381 ft
TransAlt. 18000 ft.

Airport Communications:
ASOS:118.375
INDIANAPOLIS CNTR:126.57
CTAF/UNICOM:122.8

KJKL Zoom In..

Runways:

(A) RW 01 length 4400 ft width 75 ft
---- / hdg 12

(B) RW 19 length 4400 ft width 75 ft
---- / hdg 192

Location; KJKL
Day. 22 / Time. 00.53 Zulu
* Altimeter: 30.25
* Temperature: 17° c. 62.6°f.
* Wind from: 040° Speed 06 kn.
Dewpoint: -06° c.
Visibility: 10 Statute Miles.
Clouds: Clear (automated report).

KJKL 220053Z AUTO 04006KT 10SM CLR 17/M06 A3025 RMK AO2 SLP240 T01671061


Wind From 040°
Speed 06 kn.

  YouTube Music Video
 
jpsmedia.com for Web Design  worldairports.se 2018   terms of use